createdAt,value
2017-11-10T00:00:17.299Z,1013.38
2017-11-10T00:01:17.268Z,1013.42
2017-11-10T00:02:17.230Z,1013.47
2017-11-10T00:03:17.210Z,1013.44
2017-11-10T00:04:17.141Z,1013.43
2017-11-10T00:05:17.101Z,1013.45
2017-11-10T00:06:17.067Z,1013.45
2017-11-10T00:07:17.030Z,1013.41
2017-11-10T00:08:16.992Z,1013.40
2017-11-10T00:09:16.949Z,1013.37
2017-11-10T00:10:16.930Z,1013.37
2017-11-10T00:11:16.870Z,1013.41
2017-11-10T00:12:16.838Z,1013.40
2017-11-10T00:13:16.793Z,1013.36
2017-11-10T00:14:16.775Z,1013.36
2017-11-10T00:15:16.716Z,1013.38
2017-11-10T00:16:16.682Z,1013.38
2017-11-10T00:17:16.644Z,1013.35
2017-11-10T00:18:16.613Z,1013.36
2017-11-10T00:19:16.563Z,1013.36
2017-11-10T00:20:16.533Z,1013.38
2017-11-10T00:21:16.494Z,1013.38
2017-11-10T00:22:16.445Z,1013.42
2017-11-10T00:23:16.408Z,1013.43
2017-11-10T00:24:16.368Z,1013.42
2017-11-10T00:25:16.333Z,1013.45
2017-11-10T00:26:16.294Z,1013.43
2017-11-10T00:27:16.252Z,1013.41
2017-11-10T00:28:16.215Z,1013.44
2017-11-10T00:29:16.177Z,1013.45
2017-11-10T00:30:16.138Z,1013.45
2017-11-10T00:31:16.114Z,1013.49
2017-11-10T00:32:16.064Z,1013.44
2017-11-10T00:33:16.029Z,1013.44
2017-11-10T00:34:16.002Z,1013.43
2017-11-10T00:35:15.947Z,1013.44
2017-11-10T00:36:15.905Z,1013.41
2017-11-10T00:37:15.867Z,1013.38
2017-11-10T00:38:15.830Z,1013.38
2017-11-10T00:39:15.794Z,1013.36
2017-11-10T00:40:15.753Z,1013.39
2017-11-10T00:41:15.742Z,1013.41
2017-11-10T00:42:15.677Z,1013.45
2017-11-10T00:43:15.641Z,1013.41
2017-11-10T00:44:15.598Z,1013.42
2017-11-10T00:45:15.577Z,1013.45
2017-11-10T00:46:15.522Z,1013.47
2017-11-10T00:47:15.492Z,1013.45
2017-11-10T00:48:15.447Z,1013.44
2017-11-10T00:49:15.407Z,1013.42
2017-11-10T00:50:15.377Z,1013.40
2017-11-10T00:51:15.341Z,1013.45
2017-11-10T00:52:15.295Z,1013.45
2017-11-10T00:53:15.253Z,1013.43
2017-11-10T00:54:15.213Z,1013.38
2017-11-10T00:55:15.173Z,1013.37
2017-11-10T00:56:15.134Z,1013.32
2017-11-10T00:57:15.102Z,1013.29
2017-11-10T00:58:15.071Z,1013.30
2017-11-10T00:59:15.022Z,1013.29
2017-11-10T01:00:14.980Z,1013.24
2017-11-10T01:01:14.948Z,1013.28
2017-11-10T01:02:14.907Z,1013.25
2017-11-10T01:03:14.865Z,1013.21
2017-11-10T01:04:14.830Z,1013.17
2017-11-10T01:05:14.787Z,1013.11
2017-11-10T01:06:14.751Z,1013.14
2017-11-10T01:07:14.711Z,1013.14
2017-11-10T01:08:14.672Z,1013.14
2017-11-10T01:09:14.650Z,1013.15
2017-11-10T01:10:14.596Z,1013.17
2017-11-10T01:11:14.561Z,1013.16
2017-11-10T01:12:14.540Z,1013.13
2017-11-10T01:13:14.481Z,1013.16
2017-11-10T01:14:14.438Z,1013.15
2017-11-10T01:15:14.407Z,1013.14
2017-11-10T01:16:14.360Z,1013.15
2017-11-10T01:17:14.331Z,1013.12
2017-11-10T01:18:14.288Z,1013.12
2017-11-10T01:19:14.247Z,1013.11
2017-11-10T01:20:14.208Z,1013.07
2017-11-10T01:21:14.168Z,1013.08
2017-11-10T01:22:14.132Z,1013.05
2017-11-10T01:23:14.093Z,1013.05
2017-11-10T01:24:14.058Z,1013.01
2017-11-10T01:25:14.030Z,1012.96
2017-11-10T01:26:14.015Z,1012.96
2017-11-10T01:27:13.939Z,1012.96
2017-11-10T01:28:13.896Z,1013.02
2017-11-10T01:29:13.860Z,1012.98
2017-11-10T01:30:13.823Z,1012.96
2017-11-10T01:31:13.780Z,1012.96
2017-11-10T01:32:13.741Z,1013.06
2017-11-10T01:33:13.704Z,1013.00
2017-11-10T01:34:13.666Z,1013.01
2017-11-10T01:35:13.624Z,1012.97
2017-11-10T01:36:13.598Z,1012.94
2017-11-10T01:37:13.549Z,1012.94
2017-11-10T01:38:13.513Z,1012.94
2017-11-10T01:39:13.479Z,1012.89
2017-11-10T01:40:13.435Z,1012.88
2017-11-10T01:41:13.393Z,1012.89
2017-11-10T01:42:13.358Z,1012.89
2017-11-10T01:43:13.316Z,1012.84
2017-11-10T01:44:13.278Z,1012.85
2017-11-10T01:45:13.235Z,1012.80
2017-11-10T01:46:13.198Z,1012.77
2017-11-10T01:47:13.158Z,1012.79
2017-11-10T01:48:13.120Z,1012.74
2017-11-10T01:49:13.084Z,1012.68
2017-11-10T01:50:13.046Z,1012.72
2017-11-10T01:51:13.007Z,1012.70
2017-11-10T01:52:12.973Z,1012.67
2017-11-10T01:53:12.956Z,1012.68
2017-11-10T01:54:12.891Z,1012.64
2017-11-10T01:55:12.852Z,1012.63
2017-11-10T01:56:12.812Z,1012.59
2017-11-10T01:57:12.790Z,1012.59
2017-11-10T01:58:12.740Z,1012.55
2017-11-10T01:59:12.698Z,1012.48
2017-11-10T02:00:12.661Z,1012.46
2017-11-10T02:01:12.621Z,1012.46
2017-11-10T02:02:12.583Z,1012.41
2017-11-10T02:03:12.536Z,1012.43
2017-11-10T02:04:12.502Z,1012.44
2017-11-10T02:05:12.457Z,1012.40
2017-11-10T02:06:12.421Z,1012.37
2017-11-10T02:07:12.385Z,1012.29
2017-11-10T02:08:12.346Z,1012.33
2017-11-10T02:09:12.305Z,1012.35
2017-11-10T02:10:12.269Z,1012.29
2017-11-10T02:11:12.224Z,1012.29
2017-11-10T02:12:12.184Z,1012.25
2017-11-10T02:13:12.155Z,1012.24
2017-11-10T02:14:12.109Z,1012.24
2017-11-10T02:15:12.063Z,1012.21
2017-11-10T02:16:12.026Z,1012.24
2017-11-10T02:17:12.001Z,1012.23
2017-11-10T02:18:11.954Z,1012.22
2017-11-10T02:19:11.913Z,1012.20
2017-11-10T02:20:11.881Z,1012.17
2017-11-10T02:21:11.833Z,1012.17
2017-11-10T02:22:11.802Z,1012.14
2017-11-10T02:23:11.754Z,1012.12
2017-11-10T02:24:11.715Z,1012.13
2017-11-10T02:25:11.680Z,1012.08
2017-11-10T02:26:11.637Z,1012.08
2017-11-10T02:27:11.601Z,1012.04
2017-11-10T02:28:11.559Z,1012.01
2017-11-10T02:29:11.528Z,1012.01
2017-11-10T02:30:11.485Z,1012.02
2017-11-10T02:31:11.454Z,1012.01
2017-11-10T02:32:11.403Z,1012.04
2017-11-10T02:33:11.370Z,1011.99
2017-11-10T02:34:11.327Z,1012.01
2017-11-10T02:35:11.286Z,1012.06
2017-11-10T02:36:11.249Z,1012.04
2017-11-10T02:37:11.211Z,1012.03
2017-11-10T02:38:11.171Z,1012.05
2017-11-10T02:39:11.131Z,1012.02
2017-11-10T02:40:11.090Z,1012.01
2017-11-10T02:41:11.053Z,1012.01
2017-11-10T02:42:11.020Z,1011.94
2017-11-10T02:43:10.988Z,1011.93
2017-11-10T02:44:10.936Z,1011.92
2017-11-10T02:45:10.897Z,1011.95
2017-11-10T02:46:10.856Z,1011.93
2017-11-10T02:47:10.817Z,1011.89
2017-11-10T02:48:10.780Z,1011.91
2017-11-10T02:49:10.747Z,1011.90
2017-11-10T02:50:10.706Z,1011.89
2017-11-10T02:51:10.679Z,1011.85
2017-11-10T02:52:10.623Z,1011.87
2017-11-10T02:53:10.585Z,1011.85
2017-11-10T02:54:10.553Z,1011.86
2017-11-10T02:55:10.521Z,1011.79
2017-11-10T02:56:10.481Z,1011.82
2017-11-10T02:57:10.432Z,1011.79
2017-11-10T02:58:10.387Z,1011.75
2017-11-10T02:59:10.371Z,1011.76
2017-11-10T03:00:10.313Z,1011.75
2017-11-10T03:01:10.293Z,1011.73
2017-11-10T03:02:10.233Z,1011.70
2017-11-10T03:03:10.189Z,1011.69
2017-11-10T03:04:10.154Z,1011.69
2017-11-10T03:05:10.115Z,1011.64
2017-11-10T03:06:10.096Z,1011.61
2017-11-10T03:07:10.045Z,1011.56
2017-11-10T03:08:10.000Z,1011.52
2017-11-10T03:09:09.969Z,1011.51
2017-11-10T03:10:09.919Z,1011.47
2017-11-10T03:11:09.885Z,1011.48
2017-11-10T03:12:09.846Z,1011.46
2017-11-10T03:13:09.802Z,1011.42
2017-11-10T03:14:09.763Z,1011.39
2017-11-10T03:15:09.726Z,1011.44
2017-11-10T03:16:09.688Z,1011.38
2017-11-10T03:17:09.646Z,1011.35
2017-11-10T03:18:09.611Z,1011.37
2017-11-10T03:19:09.568Z,1011.33
2017-11-10T03:20:09.529Z,1011.33
2017-11-10T03:21:09.500Z,1011.31
2017-11-10T03:22:09.453Z,1011.34
2017-11-10T03:23:09.413Z,1011.26
2017-11-10T03:24:09.379Z,1011.28
2017-11-10T03:25:09.333Z,1011.24
2017-11-10T03:26:09.295Z,1011.21
2017-11-10T03:27:09.261Z,1011.16
2017-11-10T03:28:09.217Z,1011.22
2017-11-10T03:29:09.179Z,1011.21
2017-11-10T03:30:09.142Z,1011.24
2017-11-10T03:31:09.103Z,1011.27
2017-11-10T03:32:09.062Z,1011.27
2017-11-10T03:33:09.022Z,1011.31
2017-11-10T03:34:08.984Z,1011.30
2017-11-10T03:35:08.945Z,1011.32
2017-11-10T03:36:08.903Z,1011.35
2017-11-10T03:37:08.869Z,1011.31
2017-11-10T03:38:08.830Z,1011.26
2017-11-10T03:39:08.787Z,1011.25
2017-11-10T03:40:08.751Z,1011.24
2017-11-10T03:41:08.713Z,1011.25
2017-11-10T03:42:08.673Z,1011.23
2017-11-10T03:43:08.633Z,1011.19
2017-11-10T03:44:08.595Z,1011.19
2017-11-10T03:45:08.555Z,1011.14
2017-11-10T03:46:08.526Z,1011.17
2017-11-10T03:47:08.474Z,1011.13
2017-11-10T03:48:08.439Z,1011.15
2017-11-10T03:49:08.404Z,1011.11
2017-11-10T03:50:08.368Z,1011.11
2017-11-10T03:51:08.340Z,1011.16
2017-11-10T03:52:08.282Z,1011.15
2017-11-10T03:53:08.246Z,1011.12
2017-11-10T03:54:08.205Z,1011.09
2017-11-10T03:55:08.170Z,1011.03
2017-11-10T03:56:08.125Z,1011.02
2017-11-10T03:57:08.087Z,1011.07
2017-11-10T03:58:08.060Z,1011.07
2017-11-10T03:59:08.010Z,1011.04
2017-11-10T04:00:07.976Z,1011.06
2017-11-10T04:01:07.940Z,1011.01
2017-11-10T04:02:07.898Z,1011.01
2017-11-10T04:03:07.853Z,1011.04
2017-11-10T04:04:07.825Z,1011.08
2017-11-10T04:05:07.782Z,1011.07
2017-11-10T04:06:07.740Z,1011.08
2017-11-10T04:07:07.696Z,1011.08
2017-11-10T04:08:07.665Z,1011.08
2017-11-10T04:09:07.633Z,1011.08
2017-11-10T04:10:07.582Z,1011.07
2017-11-10T04:11:07.541Z,1011.07
2017-11-10T04:12:07.504Z,1011.05
2017-11-10T04:13:07.471Z,1011.03
2017-11-10T04:14:07.444Z,1011.04
2017-11-10T04:15:07.383Z,1011.08
2017-11-10T04:16:07.348Z,1011.05
2017-11-10T04:17:07.306Z,1011.04
2017-11-10T04:18:07.273Z,1011.07
2017-11-10T04:19:07.230Z,1011.03
2017-11-10T04:20:07.191Z,1011.04
2017-11-10T04:21:07.154Z,1011.04
2017-11-10T04:22:07.124Z,1011.03
2017-11-10T04:23:07.073Z,1011.02
2017-11-10T04:24:07.034Z,1010.98
2017-11-10T04:25:07.004Z,1010.99
2017-11-10T04:26:06.961Z,1010.92
2017-11-10T04:27:06.922Z,1010.94
2017-11-10T04:28:06.889Z,1010.88
2017-11-10T04:29:06.842Z,1010.91
2017-11-10T04:30:06.800Z,1010.84
2017-11-10T04:31:06.762Z,1010.79
2017-11-10T04:32:06.723Z,1010.76
2017-11-10T04:33:06.684Z,1010.70
2017-11-10T04:34:06.645Z,1010.72
2017-11-10T04:35:06.622Z,1010.70
2017-11-10T04:36:06.573Z,1010.67
2017-11-10T04:37:06.526Z,1010.67
2017-11-10T04:38:06.494Z,1010.70
2017-11-10T04:39:06.455Z,1010.83
2017-11-10T04:40:06.412Z,1010.84
2017-11-10T04:41:06.374Z,1010.84
2017-11-10T04:42:06.333Z,1010.86
2017-11-10T04:43:06.292Z,1010.93
2017-11-10T04:44:06.254Z,1010.97
2017-11-10T04:45:06.215Z,1010.94
2017-11-10T04:46:06.176Z,1010.95
2017-11-10T04:47:06.135Z,1010.92
2017-11-10T04:48:06.104Z,1010.89
2017-11-10T04:49:06.059Z,1010.87
2017-11-10T04:50:06.020Z,1010.88
2017-11-10T04:51:05.980Z,1010.82
2017-11-10T04:52:05.944Z,1010.77
2017-11-10T04:53:05.905Z,1010.83
2017-11-10T04:54:05.864Z,1010.83
2017-11-10T04:55:05.828Z,1010.78
2017-11-10T04:56:05.789Z,1010.81
2017-11-10T04:57:05.747Z,1010.82
2017-11-10T04:58:05.709Z,1010.87
2017-11-10T04:59:05.669Z,1010.83
2017-11-10T05:00:05.631Z,1010.87
2017-11-10T05:01:05.588Z,1010.85
2017-11-10T05:02:05.554Z,1010.83
2017-11-10T05:03:05.512Z,1010.85
2017-11-10T05:04:05.478Z,1010.82
2017-11-10T05:05:05.449Z,1010.85
2017-11-10T05:06:05.394Z,1010.84
2017-11-10T05:07:05.358Z,1010.81
2017-11-10T05:08:05.327Z,1010.84
2017-11-10T05:09:05.289Z,1010.82
2017-11-10T05:10:05.242Z,1010.81
2017-11-10T05:11:05.201Z,1010.79
2017-11-10T05:12:05.161Z,1010.75
2017-11-10T05:13:05.122Z,1010.78
2017-11-10T05:14:05.093Z,1010.79
2017-11-10T05:15:05.046Z,1010.73
2017-11-10T05:16:05.040Z,1010.72
2017-11-10T05:17:04.975Z,1010.71
2017-11-10T05:18:04.941Z,1010.74
2017-11-10T05:19:04.888Z,1010.75
2017-11-10T05:20:04.851Z,1010.71
2017-11-10T05:21:04.832Z,1010.71
2017-11-10T05:22:04.772Z,1010.67
2017-11-10T05:23:04.736Z,1010.66
2017-11-10T05:24:04.707Z,1010.67
2017-11-10T05:25:04.656Z,1010.65
2017-11-10T05:26:04.644Z,1010.68
2017-11-10T05:27:04.582Z,1010.63
2017-11-10T05:28:04.543Z,1010.63
2017-11-10T05:29:04.503Z,1010.63
2017-11-10T05:30:04.464Z,1010.67
2017-11-10T05:31:04.423Z,1010.68
2017-11-10T05:32:04.387Z,1010.66
2017-11-10T05:33:04.361Z,1010.65
2017-11-10T05:34:04.310Z,1010.66
2017-11-10T05:35:04.277Z,1010.71
2017-11-10T05:36:04.236Z,1010.74
2017-11-10T05:37:04.200Z,1010.72
2017-11-10T05:38:04.152Z,1010.75
2017-11-10T05:39:04.113Z,1010.71
2017-11-10T05:40:04.077Z,1010.70
2017-11-10T05:41:04.035Z,1010.69
2017-11-10T05:42:03.997Z,1010.70
2017-11-10T05:43:03.973Z,1010.67
2017-11-10T05:44:03.918Z,1010.72
2017-11-10T05:45:03.886Z,1010.72
2017-11-10T05:46:03.850Z,1010.68
2017-11-10T05:47:03.812Z,1010.70
2017-11-10T05:48:03.763Z,1010.68
2017-11-10T05:49:03.726Z,1010.66
2017-11-10T05:50:03.684Z,1010.71
2017-11-10T05:51:03.649Z,1010.72
2017-11-10T05:52:03.611Z,1010.69
2017-11-10T05:53:03.572Z,1010.63
2017-11-10T05:54:03.534Z,1010.66
2017-11-10T05:55:03.499Z,1010.65
2017-11-10T05:56:03.458Z,1010.60
2017-11-10T05:57:03.412Z,1010.62
2017-11-10T05:58:03.374Z,1010.60
2017-11-10T05:59:03.336Z,1010.62
2017-11-10T06:00:03.298Z,1010.58
2017-11-10T06:01:03.261Z,1010.58
2017-11-10T06:02:03.220Z,1010.65
2017-11-10T06:03:03.176Z,1010.62
2017-11-10T06:04:03.140Z,1010.55
2017-11-10T06:05:03.102Z,1010.56
2017-11-10T06:06:03.062Z,1010.52
2017-11-10T06:07:03.026Z,1010.55
2017-11-10T06:08:02.992Z,1010.60
2017-11-10T06:09:02.947Z,1010.57
2017-11-10T06:10:02.912Z,1010.57
2017-11-10T06:11:02.873Z,1010.53
2017-11-10T06:12:02.828Z,1010.58
2017-11-10T06:13:02.791Z,1010.57
2017-11-10T06:14:02.760Z,1010.56
2017-11-10T06:15:02.709Z,1010.52
2017-11-10T06:16:02.674Z,1010.50
2017-11-10T06:17:02.633Z,1010.52
2017-11-10T06:18:02.595Z,1010.48
2017-11-10T06:19:02.555Z,1010.49
2017-11-10T06:20:02.517Z,1010.45
2017-11-10T06:21:02.489Z,1010.45
2017-11-10T06:22:02.442Z,1010.42
2017-11-10T06:23:02.404Z,1010.43
2017-11-10T06:24:02.369Z,1010.39
2017-11-10T06:25:02.324Z,1010.42
2017-11-10T06:26:02.293Z,1010.38
2017-11-10T06:27:02.293Z,1010.40
2017-11-10T06:28:02.217Z,1010.39
2017-11-10T06:29:02.169Z,1010.39
2017-11-10T06:30:02.129Z,1010.34
2017-11-10T06:31:02.097Z,1010.32
2017-11-10T06:32:02.053Z,1010.31
2017-11-10T06:33:02.013Z,1010.26
2017-11-10T06:34:01.976Z,1010.27
2017-11-10T06:35:01.935Z,1010.30
2017-11-10T06:36:01.898Z,1010.27
2017-11-10T06:37:01.858Z,1010.29
2017-11-10T06:38:01.819Z,1010.24
2017-11-10T06:39:01.784Z,1010.26
2017-11-10T06:40:01.759Z,1010.25
2017-11-10T06:41:01.719Z,1010.24
2017-11-10T06:42:01.667Z,1010.27
2017-11-10T06:43:01.636Z,1010.23
2017-11-10T06:44:01.595Z,1010.23
2017-11-10T06:45:01.551Z,1010.21
2017-11-10T06:46:01.511Z,1010.23
2017-11-10T06:47:01.470Z,1010.21
2017-11-10T06:48:01.432Z,1010.23
2017-11-10T06:49:01.399Z,1010.17
2017-11-10T06:50:01.368Z,1010.22
2017-11-10T06:51:01.314Z,1010.19
2017-11-10T06:52:01.290Z,1010.20
2017-11-10T06:53:01.242Z,1010.21
2017-11-10T06:54:01.200Z,1010.22
2017-11-10T06:55:01.161Z,1010.18
2017-11-10T06:56:01.134Z,1010.18
2017-11-10T06:57:01.084Z,1010.19
2017-11-10T06:58:01.059Z,1010.22
2017-11-10T06:59:01.005Z,1010.16
2017-11-10T07:00:00.982Z,1010.15
2017-11-10T07:01:00.945Z,1010.08
2017-11-10T07:02:00.889Z,1010.09
2017-11-10T07:03:00.852Z,1010.15
2017-11-10T07:04:00.818Z,1010.10
2017-11-10T07:05:00.801Z,1010.14
2017-11-10T07:06:00.746Z,1010.09
2017-11-10T07:07:00.714Z,1010.07
2017-11-10T07:08:00.666Z,1010.05
2017-11-10T07:09:00.627Z,1010.06
2017-11-10T07:10:00.582Z,1010.06
2017-11-10T07:11:00.549Z,1010.03
2017-11-10T07:12:00.504Z,1010.04
2017-11-10T07:13:00.476Z,1009.97
2017-11-10T07:14:00.439Z,1010.00
2017-11-10T07:15:00.390Z,1009.95
2017-11-10T07:16:00.349Z,1009.97
2017-11-10T07:17:00.312Z,1009.99
2017-11-10T07:18:00.275Z,1010.00
2017-11-10T07:19:00.234Z,1009.98
2017-11-10T07:20:00.196Z,1010.00
2017-11-10T07:21:00.171Z,1009.95
2017-11-10T07:22:00.118Z,1010.01
2017-11-10T07:23:00.096Z,1009.93
2017-11-10T07:24:00.052Z,1009.97
2017-11-10T07:25:00.004Z,1010.01
2017-11-10T07:25:59.970Z,1009.96
2017-11-10T07:26:59.930Z,1009.96
2017-11-10T07:27:59.888Z,1009.95
2017-11-10T07:28:59.848Z,1009.93
2017-11-10T07:29:59.814Z,1009.94
2017-11-10T07:30:59.782Z,1009.83
2017-11-10T07:31:59.740Z,1009.83
2017-11-10T07:32:59.703Z,1009.80
2017-11-10T07:33:59.692Z,1009.83
2017-11-10T07:34:59.625Z,1009.78
2017-11-10T07:35:59.581Z,1009.77
2017-11-10T07:36:59.559Z,1009.76
2017-11-10T07:37:59.503Z,1009.74
2017-11-10T07:38:59.488Z,1009.76
2017-11-10T07:39:59.431Z,1009.77
2017-11-10T07:40:59.411Z,1009.80
2017-11-10T07:41:59.360Z,1009.74
2017-11-10T07:42:59.315Z,1009.76
2017-11-10T07:43:59.280Z,1009.76
2017-11-10T07:44:59.238Z,1009.74
2017-11-10T07:45:59.219Z,1009.78
2017-11-10T07:46:59.164Z,1009.75
2017-11-10T07:47:59.135Z,1009.75
2017-11-10T07:48:59.085Z,1009.72
2017-11-10T07:49:59.049Z,1009.68
2017-11-10T07:50:59.003Z,1009.65
2017-11-10T07:51:58.975Z,1009.66
2017-11-10T07:52:58.932Z,1009.63
2017-11-10T07:53:58.928Z,1009.63
2017-11-10T07:54:58.856Z,1009.65
2017-11-10T07:55:58.836Z,1009.62
2017-11-10T07:56:58.782Z,1009.58
2017-11-10T07:57:58.789Z,1009.58
2017-11-10T07:58:58.704Z,1009.58
2017-11-10T07:59:58.712Z,1009.60
2017-11-10T08:00:58.642Z,1009.57
2017-11-10T08:01:58.607Z,1009.53
2017-11-10T08:02:58.587Z,1009.54
2017-11-10T08:03:58.512Z,1009.58
2017-11-10T08:04:58.499Z,1009.54
2017-11-10T08:05:58.450Z,1009.55
2017-11-10T08:06:58.483Z,1009.53
2017-11-10T08:07:58.366Z,1009.48
2017-11-10T08:08:58.329Z,1009.51
2017-11-10T08:09:58.604Z,1009.41
2017-11-10T08:10:59.104Z,1009.43
2017-11-10T08:11:58.240Z,1009.42
2017-11-10T08:12:58.173Z,1009.42
2017-11-10T08:13:58.127Z,1009.38
2017-11-10T08:14:58.100Z,1009.30
2017-11-10T08:15:58.050Z,1009.30
2017-11-10T08:16:58.013Z,1009.31
2017-11-10T08:17:57.974Z,1009.33
2017-11-10T08:18:57.935Z,1009.27
2017-11-10T08:19:57.898Z,1009.25
2017-11-10T08:20:57.875Z,1009.25
2017-11-10T08:21:57.821Z,1009.23
2017-11-10T08:22:57.784Z,1009.22
2017-11-10T08:23:57.741Z,1009.23
2017-11-10T08:24:57.706Z,1009.15
2017-11-10T08:25:57.669Z,1009.17
2017-11-10T08:26:57.628Z,1009.15
2017-11-10T08:27:57.595Z,1009.12
2017-11-10T08:28:57.550Z,1009.11
2017-11-10T08:29:57.522Z,1009.12
2017-11-10T08:30:57.505Z,1009.13
2017-11-10T08:31:57.464Z,1009.10
2017-11-10T08:32:57.401Z,1009.05
2017-11-10T08:33:57.375Z,1008.99
2017-11-10T08:34:57.323Z,1009.00
2017-11-10T08:35:57.340Z,1008.93
2017-11-10T08:36:57.263Z,1008.93
2017-11-10T08:37:57.208Z,1008.89
2017-11-10T08:38:57.172Z,1008.84
2017-11-10T08:39:57.135Z,1008.83
2017-11-10T08:40:57.095Z,1008.76
2017-11-10T08:41:57.057Z,1008.71
2017-11-10T08:42:57.032Z,1008.66
2017-11-10T08:43:56.983Z,1008.61
2017-11-10T08:44:56.959Z,1008.60
2017-11-10T08:45:56.911Z,1008.56
2017-11-10T08:46:56.873Z,1008.54
2017-11-10T08:47:56.828Z,1008.40
2017-11-10T08:48:56.804Z,1008.45
2017-11-10T08:49:56.758Z,1008.38
2017-11-10T08:50:56.714Z,1008.28
2017-11-10T08:51:56.677Z,1008.30
2017-11-10T08:52:56.638Z,1008.27
2017-11-10T08:53:56.605Z,1008.32
2017-11-10T08:54:56.563Z,1008.28
2017-11-10T08:55:56.524Z,1008.30
2017-11-10T08:56:56.485Z,1008.31
2017-11-10T08:57:56.453Z,1008.26
2017-11-10T08:58:56.421Z,1008.22
2017-11-10T08:59:56.371Z,1008.23
2017-11-10T09:00:56.336Z,1008.23
2017-11-10T09:01:56.304Z,1008.16
2017-11-10T09:02:56.262Z,1008.20
2017-11-10T09:03:56.218Z,1008.18
2017-11-10T09:04:56.184Z,1008.19
2017-11-10T09:05:56.154Z,1008.19
2017-11-10T09:06:56.109Z,1008.18
2017-11-10T09:07:56.075Z,1008.18
2017-11-10T09:08:56.045Z,1008.17
2017-11-10T09:09:56.004Z,1008.13
2017-11-10T09:10:55.959Z,1008.11
2017-11-10T09:11:55.918Z,1008.09
2017-11-10T09:12:55.879Z,1008.14
2017-11-10T09:13:55.840Z,1008.16
2017-11-10T09:14:55.820Z,1008.18
2017-11-10T09:15:55.763Z,1008.19
2017-11-10T09:16:55.727Z,1008.18
2017-11-10T09:17:55.697Z,1008.19
2017-11-10T09:18:55.652Z,1008.16
2017-11-10T09:19:55.621Z,1008.11
2017-11-10T09:20:55.579Z,1008.11
2017-11-10T09:21:55.537Z,1008.14
2017-11-10T09:22:55.497Z,1008.14
2017-11-10T09:23:55.461Z,1008.10
2017-11-10T09:24:55.419Z,1008.13
2017-11-10T09:25:55.393Z,1008.13
2017-11-10T09:26:55.353Z,1008.10
2017-11-10T09:27:55.312Z,1008.08
2017-11-10T09:28:55.269Z,1008.00
2017-11-10T09:29:55.236Z,1007.98
2017-11-10T09:30:55.196Z,1008.04
2017-11-10T09:31:55.155Z,1008.03
2017-11-10T09:32:55.117Z,1008.02
2017-11-10T09:33:55.078Z,1007.99
2017-11-10T09:34:55.054Z,1007.98
2017-11-10T09:35:55.011Z,1008.02
2017-11-10T09:36:54.970Z,1007.99
2017-11-10T09:37:54.942Z,1007.99
2017-11-10T09:38:54.895Z,1007.95
2017-11-10T09:39:54.849Z,1007.93
2017-11-10T09:40:54.813Z,1007.93
2017-11-10T09:41:54.774Z,1007.91
2017-11-10T09:42:54.741Z,1007.90
2017-11-10T09:43:54.705Z,1007.87
2017-11-10T09:44:54.664Z,1007.89
2017-11-10T09:45:54.634Z,1007.86
2017-11-10T09:46:54.584Z,1007.85
2017-11-10T09:47:54.554Z,1007.85
2017-11-10T09:48:54.516Z,1007.83
2017-11-10T09:49:54.473Z,1007.81
2017-11-10T09:50:54.436Z,1007.82
2017-11-10T09:51:54.404Z,1007.80
2017-11-10T09:52:54.357Z,1007.78
2017-11-10T09:53:54.319Z,1007.82
2017-11-10T09:54:54.281Z,1007.83
2017-11-10T09:55:54.247Z,1007.80
2017-11-10T09:56:54.207Z,1007.80
2017-11-10T09:57:54.167Z,1007.74
2017-11-10T09:58:54.133Z,1007.73
2017-11-10T09:59:54.089Z,1007.71
2017-11-10T10:00:54.052Z,1007.65
2017-11-10T10:01:54.016Z,1007.61
2017-11-10T10:02:53.975Z,1007.64
2017-11-10T10:03:53.939Z,1007.58
2017-11-10T10:04:53.905Z,1007.62
2017-11-10T10:05:53.865Z,1007.59
2017-11-10T10:06:53.829Z,1007.59
2017-11-10T10:07:53.788Z,1007.52
2017-11-10T10:08:53.749Z,1007.53
2017-11-10T10:09:53.734Z,1007.53
2017-11-10T10:10:53.702Z,1007.56
2017-11-10T10:11:53.641Z,1007.50
2017-11-10T10:12:53.600Z,1007.52
2017-11-10T10:13:53.564Z,1007.49
2017-11-10T10:14:53.527Z,1007.47
2017-11-10T10:15:53.488Z,1007.43
2017-11-10T10:16:53.451Z,1007.41
2017-11-10T10:17:53.417Z,1007.38
2017-11-10T10:18:53.390Z,1007.30
2017-11-10T10:19:53.339Z,1007.30
2017-11-10T10:20:53.315Z,1007.24
2017-11-10T10:21:53.266Z,1007.18
2017-11-10T10:22:53.226Z,1007.20
2017-11-10T10:23:53.180Z,1007.19
2017-11-10T10:24:53.144Z,1007.14
2017-11-10T10:25:53.127Z,1007.20
2017-11-10T10:26:53.073Z,1007.15
2017-11-10T10:27:53.034Z,1007.16
2017-11-10T10:28:52.989Z,1007.15
2017-11-10T10:29:52.963Z,1007.10
2017-11-10T10:30:52.919Z,1007.11
2017-11-10T10:31:52.883Z,1007.11
2017-11-10T10:32:52.843Z,1007.09
2017-11-10T10:33:52.801Z,1007.02
2017-11-10T10:34:52.764Z,1007.01
2017-11-10T10:35:52.739Z,1007.00
2017-11-10T10:36:52.702Z,1007.04
2017-11-10T10:37:52.651Z,1006.93
2017-11-10T10:38:52.607Z,1006.94
2017-11-10T10:39:52.586Z,1006.93
2017-11-10T10:40:52.540Z,1006.89
2017-11-10T10:41:52.509Z,1006.92
2017-11-10T10:42:52.459Z,1006.84
2017-11-10T10:43:52.424Z,1006.85
2017-11-10T10:44:52.381Z,1006.83
2017-11-10T10:45:52.348Z,1006.81
2017-11-10T10:46:52.308Z,1006.76
2017-11-10T10:47:52.281Z,1006.78
2017-11-10T10:48:52.250Z,1006.73
2017-11-10T10:49:52.196Z,1006.70
2017-11-10T10:50:52.162Z,1006.66
2017-11-10T10:51:52.122Z,1006.63
2017-11-10T10:52:52.100Z,1006.58
2017-11-10T10:53:52.055Z,1006.54
2017-11-10T10:54:52.010Z,1006.48
2017-11-10T10:55:51.969Z,1006.53
2017-11-10T10:56:51.931Z,1006.50
2017-11-10T10:57:51.901Z,1006.50
2017-11-10T10:58:51.855Z,1006.41
2017-11-10T10:59:51.826Z,1006.41
2017-11-10T11:00:51.786Z,1006.40
2017-11-10T11:01:51.752Z,1006.40
2017-11-10T11:02:51.704Z,1006.26
2017-11-10T11:03:51.667Z,1006.30
2017-11-10T11:04:51.637Z,1006.31
2017-11-10T11:05:51.594Z,1006.24
2017-11-10T11:06:51.561Z,1006.24
2017-11-10T11:07:51.519Z,1006.19
2017-11-10T11:08:51.487Z,1006.20
2017-11-10T11:09:51.445Z,1006.13
2017-11-10T11:10:51.420Z,1006.10
2017-11-10T11:11:51.369Z,1006.11
2017-11-10T11:12:51.339Z,1006.09
2017-11-10T11:13:51.292Z,1006.06
2017-11-10T11:14:51.256Z,1006.02
2017-11-10T11:15:51.242Z,1006.05
2017-11-10T11:16:51.183Z,1006.02
2017-11-10T11:17:51.144Z,1006.00
2017-11-10T11:18:51.111Z,1005.87
2017-11-10T11:19:51.070Z,1005.87
2017-11-10T11:20:51.033Z,1005.80
2017-11-10T11:21:50.999Z,1005.82
2017-11-10T11:22:50.985Z,1005.78
2017-11-10T11:23:50.924Z,1005.83
2017-11-10T11:24:50.883Z,1005.78
2017-11-10T11:25:50.856Z,1005.73
2017-11-10T11:26:50.805Z,1005.74
2017-11-10T11:27:50.768Z,1005.72
2017-11-10T11:28:50.741Z,1005.71
2017-11-10T11:29:50.696Z,1005.72
2017-11-10T11:30:50.664Z,1005.70
2017-11-10T11:31:50.643Z,1005.68
2017-11-10T11:32:50.591Z,1005.68
2017-11-10T11:33:50.545Z,1005.63
2017-11-10T11:34:50.508Z,1005.64
2017-11-10T11:35:50.477Z,1005.56
2017-11-10T11:36:50.444Z,1005.60
2017-11-10T11:37:50.405Z,1005.55
2017-11-10T11:38:50.366Z,1005.53
2017-11-10T11:39:50.322Z,1005.52
2017-11-10T11:40:50.284Z,1005.56
2017-11-10T11:41:50.252Z,1005.58
2017-11-10T11:42:50.209Z,1005.51
2017-11-10T11:43:50.171Z,1005.48
2017-11-10T11:44:50.139Z,1005.42
2017-11-10T11:45:50.100Z,1005.42
2017-11-10T11:46:50.060Z,1005.42
2017-11-10T11:47:50.027Z,1005.43
2017-11-10T11:48:49.988Z,1005.45
2017-11-10T11:49:49.949Z,1005.41
2017-11-10T11:50:49.914Z,1005.37
2017-11-10T11:51:49.874Z,1005.32
2017-11-10T11:52:49.843Z,1005.33
2017-11-10T11:53:49.803Z,1005.19
2017-11-10T11:54:49.761Z,1005.15
2017-11-10T11:55:49.726Z,1005.23
2017-11-10T11:56:49.686Z,1005.22
2017-11-10T11:57:49.657Z,1005.22
2017-11-10T11:58:49.635Z,1005.14
2017-11-10T11:59:49.572Z,1005.16
2017-11-10T12:00:49.541Z,1005.14
2017-11-10T12:01:49.503Z,1005.10
2017-11-10T12:02:49.459Z,1005.10
2017-11-10T12:03:49.439Z,1005.08
2017-11-10T12:04:49.388Z,1005.03